Time;durP1;ratioP1;P1;durP2;ratioP2;P2;SDS_P1;SDS_P2;PMS_P1;PMS_P2;Temp;Humidity;BMP_temperature;BMP_pressure;BME280_temperature;BME280_humidity;BME280_pressure;Samples;Min_cycle;Max_cycle;Signal;HPM_P1;HPM_P2
2023/10/29 00:00:18;;;;;;;0.20;0.20;;;;;;;11.09;100.00;97436.63;4906961;29;20825;-60
2023/10/29 00:02:45;;;;;;;0.20;0.20;;;;;;;11.12;100.00;97440.63;4906649;29;20139;-60
2023/10/29 00:05:12;;;;;;;0.20;0.20;;;;;;;11.14;100.00;97430.41;4903231;29;20131;-60
2023/10/29 00:07:40;;;;;;;0.20;0.20;;;;;;;11.09;100.00;97438.53;4909377;29;20194;-60
2023/10/29 00:10:08;;;;;;;0.13;0.13;;;;;;;11.15;100.00;97450.75;4901784;29;20453;-60
2023/10/29 00:12:36;;;;;;;0.10;0.10;;;;;;;11.20;100.00;97432.72;4901991;29;20448;-60
2023/10/29 00:15:05;;;;;;;0.20;0.20;;;;;;;11.19;100.00;97447.22;4897839;29;20052;-60
2023/10/29 00:17:32;;;;;;;0.20;0.20;;;;;;;11.24;100.00;97449.03;4898669;29;20055;-60
2023/10/29 00:20:00;;;;;;;0.20;0.20;;;;;;;11.27;100.00;97437.72;4901002;29;20096;-60
2023/10/29 00:22:27;;;;;;;0.10;0.10;;;;;;;11.30;100.00;97436.34;4902685;29;20092;-61
2023/10/29 00:24:54;;;;;;;0.25;0.25;;;;;;;11.31;100.00;97433.38;4902739;29;20075;-61
2023/10/29 00:27:21;;;;;;;0.20;0.20;;;;;;;11.30;100.00;97425.63;4903920;29;20048;-61
2023/10/29 00:29:50;;;;;;;0.20;0.20;;;;;;;11.35;100.00;97423.63;4911970;29;20068;-61
2023/10/29 00:32:18;;;;;;;0.20;0.20;;;;;;;11.32;100.00;97429.59;4912148;29;20044;-60
2023/10/29 00:34:47;;;;;;;0.20;0.20;;;;;;;11.34;100.00;97448.88;4908187;29;20040;-61
2023/10/29 00:37:14;;;;;;;0.20;0.20;;;;;;;11.32;100.00;97434.16;4906771;29;20427;-59
2023/10/29 00:39:41;;;;;;;0.20;0.20;;;;;;;11.36;100.00;97432.50;4901692;29;20048;-59
2023/10/29 00:42:10;;;;;;;0.20;0.20;;;;;;;11.29;100.00;97454.31;4905202;29;20043;-60
2023/10/29 00:44:37;;;;;;;0.20;0.20;;;;;;;11.26;100.00;97446.03;4901753;29;20048;-59
2023/10/29 00:47:06;;;;;;;0.20;0.20;;;;;;;11.31;100.00;97433.38;4904367;29;20040;-59
2023/10/29 00:49:33;;;;;;;0.13;0.13;;;;;;;11.25;100.00;97439.88;4913723;29;20577;-59
2023/10/29 00:52:00;;;;;;;0.20;0.20;;;;;;;11.29;100.00;97419.47;4909474;29;20040;-59
2023/10/29 00:54:27;;;;;;;0.20;0.20;;;;;;;11.25;100.00;97415.75;4912644;29;20056;-58
2023/10/29 00:56:54;;;;;;;0.10;0.10;;;;;;;11.29;100.00;97430.19;4909121;29;20405;-59
2023/10/29 00:59:21;;;;;;;0.20;0.20;;;;;;;11.30;100.00;97421.03;4897793;29;20054;-59
2023/10/29 01:01:49;;;;;;;0.20;0.20;;;;;;;11.33;100.00;97412.44;4904762;29;20052;-61
2023/10/29 01:04:17;;;;;;;0.10;0.10;;;;;;;11.43;100.00;97414.97;4910571;29;20091;-61
2023/10/29 01:06:46;;;;;;;0.20;0.20;;;;;;;11.41;100.00;97401.03;4899719;29;20164;-60
2023/10/29 01:09:13;;;;;;;0.20;0.20;;;;;;;11.45;100.00;97387.81;4898938;29;20136;-60
2023/10/29 01:11:40;;;;;;;0.20;0.20;;;;;;;11.47;100.00;97382.97;4897782;29;20048;-61
2023/10/29 01:14:07;;;;;;;0.20;0.20;;;;;;;11.52;100.00;97374.03;4901061;29;20099;-61
2023/10/29 01:16:34;;;;;;;0.20;0.20;;;;;;;11.50;100.00;97368.16;4900743;29;20076;-60
2023/10/29 01:19:01;;;;;;;0.20;0.20;;;;;;;11.50;100.00;97354.75;4908541;29;20143;-61
2023/10/29 01:21:29;;;;;;;0.20;0.20;;;;;;;11.49;100.00;97347.81;4912220;29;20044;-58
2023/10/29 01:23:56;;;;;;;0.20;0.20;;;;;;;11.47;100.00;97355.34;4903078;29;20040;-59
2023/10/29 01:26:24;;;;;;;0.20;0.20;;;;;;;11.52;100.00;97360.63;4903945;29;20076;-59
2023/10/29 01:28:51;;;;;;;0.20;0.20;;;;;;;11.51;100.00;97369.78;4900452;29;20056;-61
2023/10/29 01:31:18;;;;;;;0.20;0.20;;;;;;;11.44;100.00;97394.28;4901538;29;20076;-59
2023/10/29 01:33:45;;;;;;;0.15;0.15;;;;;;;11.45;100.00;97407.38;4908673;29;20067;-59
2023/10/29 01:36:12;;;;;;;0.20;0.20;;;;;;;11.54;100.00;97414.78;4908542;29;20056;-59
2023/10/29 01:38:40;;;;;;;0.10;0.10;;;;;;;11.54;100.00;97426.31;4907297;29;20079;-59
2023/10/29 01:41:07;;;;;;;0.17;0.17;;;;;;;11.54;100.00;97420.16;4907524;29;20462;-59
2023/10/29 01:43:34;;;;;;;0.20;0.20;;;;;;;11.47;100.00;97425.09;4900748;29;20036;-59
2023/10/29 01:46:02;;;;;;;0.13;0.13;;;;;;;11.55;100.00;97411.81;4904794;29;20062;-59
2023/10/29 01:48:29;;;;;;;0.10;0.10;;;;;;;11.49;100.00;97412.19;4898054;29;20476;-59
2023/10/29 01:50:57;;;;;;;0.20;0.20;;;;;;;11.52;100.00;97414.28;4898848;29;20052;-59
2023/10/29 01:53:24;;;;;;;0.10;0.10;;;;;;;11.47;100.00;97409.00;4912202;29;20531;-59
2023/10/29 01:55:53;;;;;;;0.15;0.15;;;;;;;11.40;100.00;97410.16;4904466;29;20096;-59
2023/10/29 01:58:20;;;;;;;0.20;0.20;;;;;;;11.46;100.00;97410.91;4909266;29;20052;-59
2023/10/29 02:00:47;;;;;;;0.13;0.13;;;;;;;11.53;100.00;97413.19;4906079;29;20055;-60
2023/10/29 02:03:14;;;;;;;0.10;0.10;;;;;;;11.60;100.00;97427.81;4909878;29;20134;-59
2023/10/29 02:05:42;;;;;;;0.20;0.20;;;;;;;11.58;100.00;97419.28;4912903;29;20499;-59
2023/10/29 02:08:10;;;;;;;0.20;0.20;;;;;;;11.60;100.00;97421.66;4903810;29;20055;-59
2023/10/29 02:10:37;;;;;;;0.15;0.15;;;;;;;11.68;100.00;97425.56;4905229;29;20043;-59
2023/10/29 02:13:05;;;;;;;0.20;0.20;;;;;;;11.74;100.00;97414.47;4903697;29;20479;-59
2023/10/29 02:15:32;;;;;;;0.20;0.20;;;;;;;11.69;100.00;97406.50;4909615;29;20063;-60
2023/10/29 02:17:59;;;;;;;0.13;0.13;;;;;;;11.66;100.00;97401.72;4908217;29;20099;-60
2023/10/29 02:20:26;;;;;;;0.20;0.20;;;;;;;11.69;100.00;97411.84;4903302;29;20043;-59
2023/10/29 02:22:55;;;;;;;0.20;0.20;;;;;;;11.75;100.00;97408.00;4904172;29;20072;-59
2023/10/29 02:25:22;;;;;;;0.15;0.15;;;;;;;11.67;100.00;97403.31;4903687;29;20072;-59
2023/10/29 02:27:49;;;;;;;0.10;0.10;;;;;;;11.64;100.00;97395.84;4903845;29;20044;-60
2023/10/29 02:30:17;;;;;;;0.10;0.10;;;;;;;11.65;100.00;97384.00;4900385;29;20139;-59
2023/10/29 02:32:44;;;;;;;0.10;0.10;;;;;;;11.64;100.00;97377.06;4897261;29;20139;-59
2023/10/29 02:35:11;;;;;;;0.10;0.10;;;;;;;11.76;100.00;97369.34;4913391;29;20063;-60
2023/10/29 02:37:38;;;;;;;0.20;0.20;;;;;;;11.72;100.00;97371.00;4907961;29;20197;-60
2023/10/29 02:40:08;;;;;;;0.20;0.20;;;;;;;11.58;100.00;97357.56;4904228;29;20523;-59
2023/10/29 02:42:36;;;;;;;0.10;0.10;;;;;;;11.60;100.00;97365.31;4914634;29;20409;-59
2023/10/29 02:45:03;;;;;;;0.10;0.10;;;;;;;11.62;100.00;97357.78;4901235;29;20545;-59
2023/10/29 02:47:31;;;;;;;0.20;0.20;;;;;;;11.56;100.00;97348.22;4901339;29;20052;-59
2023/10/29 02:49:58;;;;;;;0.20;0.20;;;;;;;11.50;100.00;97344.81;4911054;29;20214;-60
2023/10/29 02:52:25;;;;;;;0.10;0.10;;;;;;;11.56;100.00;97342.88;4905989;29;20558;-59
2023/10/29 02:54:52;;;;;;;0.20;0.20;;;;;;;11.58;100.00;97340.66;4907113;29;20052;-59
2023/10/29 02:57:21;;;;;;;0.10;0.10;;;;;;;11.68;100.00;97345.84;4903012;29;20068;-60
2023/10/29 02:59:48;;;;;;;0.20;0.20;;;;;;;11.71;100.00;97329.19;4914801;29;20056;-59
2023/10/29 03:02:15;;;;;;;0.20;0.20;;;;;;;11.75;100.00;97316.75;4907476;29;20091;-59
2023/10/29 03:04:42;;;;;;;0.10;0.10;;;;;;;11.78;100.00;97316.16;4901508;29;20489;-60
2023/10/29 03:07:09;;;;;;;0.20;0.20;;;;;;;11.80;100.00;97307.81;4894971;29;20491;-59
2023/10/29 03:09:39;;;;;;;0.20;0.20;;;;;;;11.86;100.00;97312.81;4905979;29;20037;-60
2023/10/29 03:12:07;;;;;;;0.20;0.20;;;;;;;11.79;100.00;97292.81;4903157;29;20060;-59
2023/10/29 03:14:36;;;;;;;0.20;0.20;;;;;;;11.82;100.00;97287.63;4912436;29;20094;-59
2023/10/29 03:17:03;;;;;;;0.10;0.10;;;;;;;11.77;100.00;97279.66;4901753;29;20052;-60
2023/10/29 03:19:30;;;;;;;0.10;0.10;;;;;;;11.79;100.00;97282.06;4903912;29;20044;-59
2023/10/29 03:21:57;;;;;;;0.20;0.20;;;;;;;11.79;100.00;97288.22;4896168;29;20164;-59
2023/10/29 03:24:25;;;;;;;0.20;0.20;;;;;;;11.82;100.00;97279.56;4893762;29;20051;-59
2023/10/29 03:26:52;;;;;;;0.10;0.10;;;;;;;11.82;100.00;97255.41;4904404;29;20507;-59
2023/10/29 03:29:19;;;;;;;0.20;0.20;;;;;;;11.96;100.00;97270.78;4911300;29;20045;-59
2023/10/29 03:31:47;;;;;;;0.20;0.20;;;;;;;11.93;100.00;97284.78;4903277;29;20056;-59
2023/10/29 03:34:14;;;;;;;0.20;0.20;;;;;;;11.83;100.00;97280.34;4907982;29;20044;-59
2023/10/29 03:36:41;;;;;;;0.20;0.20;;;;;;;11.80;100.00;97279.06;4913058;29;20841;-59
2023/10/29 03:39:09;;;;;;;0.10;0.10;;;;;;;11.90;100.00;97277.31;4901012;29;20047;-60
2023/10/29 03:41:37;;;;;;;0.20;0.20;;;;;;;11.98;100.00;97279.31;4909331;29;20466;-60
2023/10/29 03:44:04;;;;;;;0.20;0.20;;;;;;;11.95;100.00;97274.53;4905763;29;20456;-59
2023/10/29 03:46:31;;;;;;;0.20;0.20;;;;;;;11.98;100.00;97279.31;4903021;29;20210;-59
2023/10/29 03:48:59;;;;;;;0.28;0.28;;;;;;;12.00;100.00;97277.13;4910878;29;20592;-59
2023/10/29 03:51:28;;;;;;;0.20;0.20;;;;;;;11.97;100.00;97283.88;4906092;29;20055;-59
2023/10/29 03:53:55;;;;;;;0.13;0.13;;;;;;;11.83;100.00;97289.22;4906537;29;20053;-59
2023/10/29 03:56:22;;;;;;;0.20;0.20;;;;;;;11.95;100.00;97310.22;4905914;29;21894;-59
2023/10/29 03:58:49;;;;;;;0.20;0.20;;;;;;;11.93;100.00;97298.19;4907690;29;20053;-59
2023/10/29 04:01:17;;;;;;;0.13;0.13;;;;;;;11.96;100.00;97278.81;4903802;29;20044;-59
2023/10/29 04:03:44;;;;;;;0.13;0.13;;;;;;;11.96;100.00;97293.03;4914295;29;20075;-59
2023/10/29 04:06:13;;;;;;;0.10;0.10;;;;;;;12.07;100.00;97304.38;4900924;29;20679;-59
2023/10/29 04:08:41;;;;;;;0.10;0.10;;;;;;;12.17;100.00;97312.22;4901839;29;20559;-60
2023/10/29 04:11:08;;;;;;;0.10;0.10;;;;;;;12.09;100.00;97300.28;4909296;29;20047;-60
2023/10/29 04:13:35;;;;;;;0.20;0.20;;;;;;;12.16;100.00;97283.00;4908799;29;20048;-60
2023/10/29 04:16:02;;;;;;;0.13;0.13;;;;;;;12.14;100.00;97288.66;4897386;29;20127;-59
2023/10/29 04:18:31;;;;;;;0.20;0.20;;;;;;;12.27;100.00;97287.84;4904454;29;20131;-59
2023/10/29 04:20:58;;;;;;;0.20;0.20;;;;;;;12.32;100.00;97267.34;4897659;29;20083;-59
2023/10/29 04:23:27;;;;;;;0.10;0.10;;;;;;;12.40;100.00;97261.25;4899629;29;20036;-59
2023/10/29 04:25:54;;;;;;;0.20;0.20;;;;;;;12.53;100.00;97244.31;4905516;29;20078;-59
2023/10/29 04:28:21;;;;;;;0.20;0.20;;;;;;;12.51;100.00;97249.19;4914835;29;20134;-60
2023/10/29 04:30:49;;;;;;;0.10;0.10;;;;;;;12.59;100.00;97235.03;4909669;29;20071;-60
2023/10/29 04:33:16;;;;;;;0.17;0.17;;;;;;;12.72;100.00;97225.31;4902313;29;20056;-59
2023/10/29 04:35:44;;;;;;;0.10;0.10;;;;;;;12.79;100.00;97232.97;4904540;29;20051;-59
2023/10/29 04:38:12;;;;;;;0.10;0.10;;;;;;;12.88;100.00;97231.13;4899572;29;20131;-62
2023/10/29 04:40:39;;;;;;;0.10;0.10;;;;;;;12.83;100.00;97252.75;4903415;29;20052;-61
2023/10/29 04:43:06;;;;;;;0.10;0.10;;;;;;;12.82;100.00;97270.00;4900774;29;20048;-60
2023/10/29 04:45:33;;;;;;;0.10;0.10;;;;;;;12.68;100.00;97248.53;4897824;29;20100;-60
2023/10/29 04:48:00;;;;;;;0.10;0.10;;;;;;;12.67;100.00;97281.88;4904396;29;20492;-60
2023/10/29 04:50:30;;;;;;;0.10;0.10;;;;;;;12.62;100.00;97260.50;4906942;29;20080;-59
2023/10/29 04:52:57;;;;;;;0.20;0.20;;;;;;;12.65;100.00;97254.50;4902385;29;20080;-59
2023/10/29 04:55:24;;;;;;;0.10;0.10;;;;;;;12.60;100.00;97268.84;4905605;29;20561;-60
2023/10/29 04:57:52;;;;;;;0.10;0.10;;;;;;;12.55;100.00;97262.81;4908791;29;20127;-60
2023/10/29 05:00:19;;;;;;;0.20;0.20;;;;;;;12.45;100.00;97251.19;4912362;29;20091;-60
2023/10/29 05:02:46;;;;;;;0.10;0.10;;;;;;;12.42;100.00;97251.00;4907744;29;20044;-60
2023/10/29 05:05:13;;;;;;;0.10;0.10;;;;;;;12.41;100.00;97249.44;4902728;29;20099;-60
2023/10/29 05:07:41;;;;;;;0.10;0.10;;;;;;;12.43;100.00;97247.22;4899817;29;20072;-59
2023/10/29 05:10:08;;;;;;;0.20;0.20;;;;;;;12.34;100.00;97247.16;4899417;29;20055;-60
2023/10/29 05:12:35;;;;;;;0.10;0.10;;;;;;;12.27;100.00;97227.97;4894135;29;20128;-60
2023/10/29 05:15:05;;;;;;;0.17;0.17;;;;;;;12.32;100.00;97240.47;4908132;29;20049;-60
2023/10/29 05:17:32;;;;;;;0.20;0.20;;;;;;;12.29;100.00;97231.13;4896930;29;20061;-60
2023/10/29 05:19:59;;;;;;;0.20;0.20;;;;;;;12.16;100.00;97262.31;4903212;29;20203;-59
2023/10/29 05:22:26;;;;;;;0.10;0.10;;;;;;;12.04;100.00;97283.50;4900257;29;20593;-60
2023/10/29 05:24:53;;;;;;;0.20;0.20;;;;;;;12.09;100.00;97296.81;4904410;29;20507;-60
2023/10/29 05:27:20;;;;;;;0.10;0.10;;;;;;;11.97;100.00;97280.41;4907755;29;20049;-60
2023/10/29 05:29:47;;;;;;;0.20;0.20;;;;;;;12.01;100.00;97301.00;4902324;29;20575;-60
2023/10/29 05:32:15;;;;;;;0.20;0.20;;;;;;;11.94;100.00;97295.22;4898764;29;20080;-59
2023/10/29 05:34:42;;;;;;;0.13;0.13;;;;;;;11.93;100.00;97303.56;4898792;29;20107;-60
2023/10/29 05:37:09;;;;;;;0.20;0.20;;;;;;;11.91;100.00;97300.41;4907163;29;20068;-60
2023/10/29 05:39:36;;;;;;;0.20;0.20;;;;;;;11.83;100.00;97320.63;4907930;29;20436;-60
2023/10/29 05:42:04;;;;;;;0.20;0.20;;;;;;;11.78;100.00;97318.03;4912688;29;20043;-60
2023/10/29 05:44:31;;;;;;;0.20;0.20;;;;;;;11.84;100.00;97323.03;4900471;29;20043;-59
2023/10/29 05:46:58;;;;;;;0.20;0.20;;;;;;;11.86;100.00;97317.38;4894585;29;20103;-59
2023/10/29 05:49:26;;;;;;;0.20;0.20;;;;;;;11.74;100.00;97312.47;4905872;29;20090;-60
2023/10/29 05:51:53;;;;;;;0.10;0.10;;;;;;;11.77;100.00;97314.56;4900549;29;20141;-59
2023/10/29 05:54:21;;;;;;;0.20;0.20;;;;;;;11.71;100.00;97323.81;4905665;29;20096;-60
2023/10/29 05:56:48;;;;;;;0.20;0.20;;;;;;;11.75;100.00;97321.31;4906006;29;20068;-61
2023/10/29 05:59:14;;;;;;;0.10;0.10;;;;;;;11.71;100.00;97317.66;4903365;29;20127;-61
2023/10/29 06:01:42;;;;;;;0.20;0.20;;;;;;;11.69;100.00;97319.84;4905330;29;20135;-60
2023/10/29 06:04:09;;;;;;;0.20;0.20;;;;;;;11.70;100.00;97324.88;4898840;29;20053;-60
2023/10/29 06:06:37;;;;;;;0.10;0.10;;;;;;;11.65;100.00;97330.34;4910707;29;20140;-61
2023/10/29 06:09:04;;;;;;;0.20;0.20;;;;;;;11.67;100.00;97357.69;4911053;29;20140;-60
2023/10/29 06:11:31;;;;;;;0.10;0.10;;;;;;;11.66;100.00;97356.91;4907582;29;20087;-60
2023/10/29 06:13:58;;;;;;;0.20;0.20;;;;;;;11.73;100.00;97348.47;4906030;29;20694;-60
2023/10/29 06:16:25;;;;;;;0.10;0.10;;;;;;;11.73;100.00;97356.53;4912414;29;20051;-60
2023/10/29 06:18:53;;;;;;;0.10;0.10;;;;;;;11.66;100.00;97348.06;4905407;29;20072;-60
2023/10/29 06:21:20;;;;;;;0.20;0.20;;;;;;;11.79;100.00;97363.38;4913705;29;20245;-60
2023/10/29 06:23:49;;;;;;;0.20;0.20;;;;;;;11.75;100.00;97362.38;4907220;29;20079;-60
2023/10/29 06:26:16;;;;;;;0.20;0.20;;;;;;;11.68;100.00;97366.53;4914596;29;20145;-60
2023/10/29 06:28:43;;;;;;;0.17;0.17;;;;;;;11.77;100.00;97381.66;4914376;29;20052;-60
2023/10/29 06:31:10;;;;;;;0.10;0.10;;;;;;;11.74;100.00;97387.63;4907263;29;20476;-61
2023/10/29 06:33:37;;;;;;;0.20;0.20;;;;;;;11.73;100.00;97385.22;4905633;29;20099;-61
2023/10/29 06:36:05;;;;;;;0.20;0.20;;;;;;;11.83;100.00;97415.38;4905944;29;20143;-61
2023/10/29 06:38:32;;;;;;;0.20;0.20;;;;;;;11.90;100.00;97416.91;4899834;29;20051;-61
2023/10/29 06:41:01;;;;;;;0.20;0.20;;;;;;;11.81;100.00;97414.09;4907117;29;20048;-61
2023/10/29 06:43:29;;;;;;;0.10;0.10;;;;;;;11.82;100.00;97397.66;4913084;29;20064;-61
2023/10/29 06:45:56;;;;;;;0.20;0.20;;;;;;;11.84;100.00;97397.38;4898677;29;20410;-60
2023/10/29 06:48:23;;;;;;;0.20;0.20;;;;;;;11.81;100.00;97389.94;4904905;29;20044;-60
2023/10/29 06:50:50;;;;;;;0.10;0.10;;;;;;;11.84;100.00;97392.03;4906547;29;20496;-61
2023/10/29 06:53:18;;;;;;;0.20;0.20;;;;;;;11.72;100.00;97389.78;4901848;29;20084;-60
2023/10/29 06:55:45;;;;;;;0.20;0.20;;;;;;;11.85;100.00;97394.38;4900545;29;20140;-61
2023/10/29 06:58:13;;;;;;;0.10;0.10;;;;;;;11.71;100.00;97398.94;4903322;29;20159;-61
2023/10/29 07:00:40;;;;;;;0.10;0.10;;;;;;;11.74;100.00;97398.34;4900726;29;20143;-61
2023/10/29 07:03:09;;;;;;;0.20;0.20;;;;;;;11.68;100.00;97391.47;4902148;29;20080;-60
2023/10/29 07:05:36;;;;;;;0.20;0.20;;;;;;;11.76;100.00;97406.91;4893756;29;20048;-60
2023/10/29 07:08:04;;;;;;;0.10;0.10;;;;;;;11.77;100.00;97397.75;4899873;29;20151;-60
2023/10/29 07:10:31;;;;;;;0.10;0.10;;;;;;;11.71;100.00;97377.47;4916067;29;20578;-60
2023/10/29 07:12:58;;;;;;;0.15;0.15;;;;;;;11.70;100.00;97397.34;4899932;29;20056;-59
2023/10/29 07:15:26;;;;;;;0.10;0.10;;;;;;;11.76;100.00;97444.50;4906709;29;20052;-60
2023/10/29 07:17:54;;;;;;;0.10;0.10;;;;;;;11.69;100.00;97406.50;4905784;29;20056;-60
2023/10/29 07:20:22;;;;;;;0.20;0.20;;;;;;;11.70;100.00;97385.81;4900004;29;20058;-60
2023/10/29 07:22:48;;;;;;;0.15;0.15;;;;;;;11.71;100.00;97390.91;4903048;29;20507;-60
2023/10/29 07:25:16;;;;;;;0.20;0.20;;;;;;;11.72;100.00;97389.78;4901207;29;20052;-60
2023/10/29 07:27:43;;;;;;;0.10;0.10;;;;;;;11.70;100.00;97412.66;4899643;29;20411;-60
2023/10/29 07:30:10;;;;;;;0.20;0.20;;;;;;;11.80;100.00;97429.38;4909488;29;20056;-60
2023/10/29 07:32:39;;;;;;;0.10;0.10;;;;;;;11.72;100.00;97413.16;4897397;29;20055;-60
2023/10/29 07:35:06;;;;;;;0.20;0.20;;;;;;;11.77;100.00;97408.50;4903987;29;20131;-60
2023/10/29 07:37:33;;;;;;;0.10;0.10;;;;;;;11.86;100.00;97406.78;4900555;29;20047;-59
2023/10/29 07:40:00;;;;;;;0.20;0.20;;;;;;;11.82;100.00;97426.41;4899923;29;20052;-60
2023/10/29 07:42:27;;;;;;;0.10;0.10;;;;;;;11.93;100.00;97429.75;4899627;29;20062;-60
2023/10/29 07:44:54;;;;;;;0.20;0.20;;;;;;;12.01;100.00;97439.81;4908913;29;20135;-60
2023/10/29 07:47:22;;;;;;;0.10;0.10;;;;;;;11.97;100.00;97452.22;4901655;29;20044;-60
2023/10/29 07:49:50;;;;;;;0.10;0.10;;;;;;;12.00;100.00;97460.47;4904421;29;20044;-60
2023/10/29 07:52:17;;;;;;;0.13;0.13;;;;;;;12.13;100.00;97458.94;4908470;29;20087;-60
2023/10/29 07:54:44;;;;;;;0.10;0.10;;;;;;;12.23;100.00;97452.56;4902758;29;20140;-60
2023/10/29 07:57:11;;;;;;;0.10;0.10;;;;;;;12.27;100.00;97449.00;4913100;29;20071;-60
2023/10/29 07:59:38;;;;;;;0.10;0.10;;;;;;;12.28;100.00;97439.88;4903094;29;20502;-59
2023/10/29 08:02:05;;;;;;;0.10;0.10;;;;;;;12.45;100.00;97447.31;4898451;29;20456;-61
2023/10/29 08:04:32;;;;;;;0.20;0.20;;;;;;;12.56;100.00;97449.84;4906103;29;20051;-60
2023/10/29 08:07:01;;;;;;;0.10;0.10;;;;;;;12.72;100.00;97446.53;4897347;29;20092;-60
2023/10/29 08:09:28;;;;;;;0.10;0.10;;;;;;;12.72;100.00;97457.28;4898433;29;20494;-59
2023/10/29 08:11:55;;;;;;;0.10;0.10;;;;;;;12.70;100.00;97451.44;4899637;29;20446;-61
2023/10/29 08:14:22;;;;;;;0.10;0.10;;;;;;;12.62;100.00;97438.66;4896338;29;20424;-60
2023/10/29 08:16:49;;;;;;;0.10;0.10;;;;;;;12.66;100.00;97428.13;4896204;29;20033;-60
2023/10/29 08:19:16;;;;;;;0.17;0.17;;;;;;;13.16;100.00;97449.66;4905329;29;20498;-61
2023/10/29 08:21:43;;;;;;;0.20;0.20;;;;;;;13.60;100.00;97440.06;4900447;29;20116;-60
2023/10/29 08:24:12;;;;;;;0.20;0.20;;;;;;;13.99;100.00;97438.59;4892651;29;20470;-60
2023/10/29 08:26:39;;;;;;;0.10;0.10;;;;;;;13.85;100.00;97433.28;4899815;29;20044;-60
2023/10/29 08:29:06;;;;;;;0.10;0.10;;;;;;;13.51;100.00;97440.03;4905105;29;20045;-59
2023/10/29 08:31:33;;;;;;;0.15;0.15;;;;;;;13.73;100.00;97443.84;4898841;29;20811;-59
2023/10/29 08:34:00;;;;;;;0.10;0.10;;;;;;;13.66;100.00;97440.78;4908316;29;20048;-59
2023/10/29 08:36:28;;;;;;;0.10;0.10;;;;;;;14.63;100.00;97455.28;4900118;29;20195;-59
2023/10/29 08:38:55;;;;;;;0.10;0.10;;;;;;;14.57;100.00;97458.41;4904451;29;20068;-59
2023/10/29 08:41:23;;;;;;;0.10;0.10;;;;;;;14.62;100.00;97458.28;4906425;29;20391;-60
2023/10/29 08:43:52;;;;;;;0.10;0.10;;;;;;;14.25;100.00;97465.69;4903930;29;20071;-59
2023/10/29 08:46:19;;;;;;;0.10;0.10;;;;;;;13.89;100.00;97458.50;4912117;29;20062;-60
2023/10/29 08:48:46;;;;;;;0.10;0.10;;;;;;;13.73;100.00;97484.22;4907656;29;20080;-59
2023/10/29 08:51:14;;;;;;;0.10;0.10;;;;;;;13.62;100.00;97486.34;4904478;29;20139;-59
2023/10/29 08:53:41;;;;;;;0.08;0.08;;;;;;;13.47;100.00;97492.84;4914457;29;20051;-60
2023/10/29 08:56:09;;;;;;;0.10;0.10;;;;;;;13.44;100.00;97506.13;4905520;29;20071;-58
2023/10/29 08:58:38;;;;;;;0.10;0.10;;;;;;;13.29;100.00;97515.34;4917856;29;20054;-59
2023/10/29 09:01:07;;;;;;;0.10;0.10;;;;;;;13.17;100.00;97521.97;4904011;29;20627;-59
2023/10/29 09:03:34;;;;;;;0.03;0.03;;;;;;;13.14;100.00;97519.91;4911595;29;20569;-59
2023/10/29 09:06:03;;;;;;;0.10;0.10;;;;;;;12.97;100.00;97538.53;4899690;29;20446;-59
2023/10/29 09:08:31;;;;;;;0.10;0.10;;;;;;;12.81;100.00;97531.88;4907032;29;20048;-59
2023/10/29 09:10:58;;;;;;;0.10;0.10;;;;;;;12.74;100.00;97526.88;4898530;29;20139;-58
2023/10/29 09:13:25;;;;;;;0.10;0.10;;;;;;;12.86;100.00;97521.03;4906088;29;20059;-59
2023/10/29 09:15:53;;;;;;;0.10;0.10;;;;;;;12.61;100.00;97509.66;4898165;29;20092;-59
2023/10/29 09:18:21;;;;;;;0.10;0.10;;;;;;;12.64;100.00;97506.38;4899925;29;20044;-59
2023/10/29 09:20:48;;;;;;;0.10;0.10;;;;;;;12.69;100.00;97508.94;4902256;29;20063;-59
2023/10/29 09:23:15;;;;;;;0.10;0.10;;;;;;;12.71;100.00;97511.34;4899699;29;20050;-59
2023/10/29 09:25:44;;;;;;;0.10;0.10;;;;;;;12.80;100.00;97520.31;4908865;29;20048;-58
2023/10/29 09:28:11;;;;;;;0.10;0.10;;;;;;;12.76;100.00;97531.97;4905634;29;20040;-58
2023/10/29 09:30:39;;;;;;;0.10;0.10;;;;;;;12.78;100.00;97503.69;4902904;29;20056;-59
2023/10/29 09:33:08;;;;;;;0.10;0.10;;;;;;;12.98;100.00;97515.13;4903476;29;20071;-58
2023/10/29 09:35:35;;;;;;;0.00;0.00;;;;;;;12.93;100.00;97529.50;4905319;29;20045;-59
2023/10/29 09:38:02;;;;;;;0.10;0.10;;;;;;;12.90;100.00;97532.75;4906715;29;20043;-58
2023/10/29 09:40:29;;;;;;;0.10;0.10;;;;;;;12.99;100.00;97524.81;4907059;29;20060;-59
2023/10/29 09:42:56;;;;;;;0.10;0.10;;;;;;;13.14;100.00;97535.25;4913085;29;20044;-58
2023/10/29 09:45:25;;;;;;;0.10;0.10;;;;;;;13.16;100.00;97525.78;4905711;29;20596;-59
2023/10/29 09:47:52;;;;;;;0.10;0.10;;;;;;;13.24;100.00;97508.13;4912135;29;20073;-58
2023/10/29 09:50:21;;;;;;;0.10;0.10;;;;;;;13.20;100.00;97512.50;4911127;29;20040;-58
2023/10/29 09:52:50;;;;;;;0.10;0.10;;;;;;;13.24;100.00;97518.09;4910726;29;20057;-58
2023/10/29 09:55:18;;;;;;;0.10;0.10;;;;;;;13.36;100.00;97518.41;4910218;29;20060;-59
2023/10/29 09:57:45;;;;;;;0.10;0.10;;;;;;;13.43;100.00;97526.88;4922055;29;20048;-59
2023/10/29 10:00:15;;;;;;;0.15;0.15;;;;;;;13.33;100.00;97527.09;4909082;29;20055;-59
2023/10/29 10:02:52;;;;;;;0.10;0.10;;;;;;;13.31;100.00;97523.91;4910790;29;20103;-61
2023/10/29 10:05:21;;;;;;;0.10;0.10;;;;;;;13.23;100.00;97517.31;4908276;29;20135;-60
2023/10/29 10:07:48;;;;;;;0.20;0.20;;;;;;;13.22;100.00;97531.06;4913540;29;20163;-58
2023/10/29 10:10:15;;;;;;;0.10;0.10;;;;;;;13.28;100.00;97519.09;4901025;29;20052;-60
2023/10/29 10:12:46;;;;;;;0.15;0.15;;;;;;;13.33;100.00;97510.94;4913995;29;20566;-60
2023/10/29 10:15:14;;;;;;;0.10;0.10;;;;;;;13.24;100.00;97502.75;4910003;29;20045;-59
2023/10/29 10:17:46;;;;;;;0.15;0.15;;;;;;;13.41;100.00;97493.28;4917444;29;20296;-59
2023/10/29 10:20:14;;;;;;;0.13;0.13;;;;;;;13.49;100.00;97497.94;4907839;29;20052;-59
2023/10/29 10:22:43;;;;;;;0.10;0.10;;;;;;;13.67;100.00;97469.28;4889292;29;20530;-59
2023/10/29 10:25:17;;;;;;;0.17;0.17;;;;;;;13.38;100.00;97473.16;4884958;29;20045;-59
2023/10/29 10:27:48;;;;;;;0.10;0.10;;;;;;;13.64;100.00;97477.97;4895347;29;20131;-59
2023/10/29 10:30:24;;;;;;;0.10;0.10;;;;;;;13.71;100.00;97483.72;4886872;29;20053;-59
2023/10/29 10:32:51;;;;;;;0.10;0.10;;;;;;;13.38;100.00;97481.25;4898018;29;20072;-59
2023/10/29 10:35:19;;;;;;;0.13;0.13;;;;;;;13.13;100.00;97477.97;4883326;29;20075;-59
2023/10/29 10:37:54;;;;;;;0.10;0.10;;;;;;;13.23;100.00;97476.13;4886983;29;20073;-59
2023/10/29 10:40:22;;;;;;;0.10;0.10;;;;;;;13.36;100.00;97472.66;4883681;29;20068;-60
2023/10/29 10:42:54;;;;;;;0.10;0.10;;;;;;;13.42;100.00;97482.22;4886435;29;20048;-60
2023/10/29 10:45:26;;;;;;;0.10;0.10;;;;;;;13.29;100.00;97488.44;4884154;29;20093;-59
2023/10/29 10:47:56;;;;;;;0.10;0.10;;;;;;;13.12;100.00;97499.78;4883758;29;20049;-59
2023/10/29 10:50:23;;;;;;;0.10;0.10;;;;;;;13.03;100.00;97496.19;4879665;29;20041;-60
2023/10/29 10:52:51;;;;;;;0.10;0.10;;;;;;;13.00;100.00;97504.88;4890195;29;20049;-60
2023/10/29 10:55:20;;;;;;;0.10;0.10;;;;;;;13.05;100.00;97504.75;4893518;29;20080;-60
2023/10/29 10:57:48;;;;;;;0.20;0.20;;;;;;;12.82;100.00;97517.31;4889082;29;20048;-59
2023/10/29 11:00:16;;;;;;;0.10;0.10;;;;;;;12.67;100.00;97521.09;4892579;29;20092;-59
2023/10/29 11:02:43;;;;;;;0.10;0.10;;;;;;;12.71;100.00;97525.59;4892465;29;20525;-59
2023/10/29 11:05:11;;;;;;;0.10;0.10;;;;;;;12.53;100.00;97515.72;4887311;29;20052;-60
2023/10/29 11:07:38;;;;;;;0.13;0.13;;;;;;;12.49;100.00;97525.47;4891266;29;20096;-60
2023/10/29 11:10:08;;;;;;;0.10;0.10;;;;;;;12.49;100.00;97504.75;4882969;29;20343;-59
2023/10/29 11:12:36;;;;;;;0.20;0.20;;;;;;;12.38;100.00;97486.41;4890736;29;20495;-59
2023/10/29 11:15:14;;;;;;;0.10;0.10;;;;;;;12.42;100.00;97465.94;4892890;29;20088;-59
2023/10/29 11:17:50;;;;;;;0.10;0.10;;;;;;;12.17;100.00;97454.56;4890209;29;20067;-59
2023/10/29 11:20:50;;;;;;;0.20;0.20;;;;;;;12.35;100.00;97479.75;4881063;29;20078;-59
2023/10/29 11:23:17;;;;;;;0.10;0.10;;;;;;;12.47;100.00;97488.13;4899350;29;20108;-59
2023/10/29 11:25:44;;;;;;;0.17;0.17;;;;;;;12.51;100.00;97481.06;4905480;29;20099;-59